createdAt,value
2018-02-18T00:00:05.193Z,41.60
2018-02-18T00:02:32.759Z,41.50
2018-02-18T00:05:00.370Z,41.53
2018-02-18T00:07:27.970Z,42.57
2018-02-18T00:09:55.524Z,44.40
2018-02-18T00:12:23.432Z,42.43
2018-02-18T00:14:57.341Z,42.47
2018-02-18T00:17:25.259Z,41.43
2018-02-18T00:19:52.820Z,39.80
2018-02-18T00:22:20.404Z,41.37
2018-02-18T00:24:48.009Z,42.30
2018-02-18T00:27:15.569Z,39.93
2018-02-18T00:29:43.146Z,44.23
2018-02-18T00:32:10.766Z,45.63
2018-02-18T00:34:38.315Z,43.20
2018-02-18T00:37:05.900Z,42.80
2018-02-18T00:39:33.507Z,42.10
2018-02-18T00:42:01.078Z,42.23
2018-02-18T00:44:28.627Z,42.43
2018-02-18T00:46:56.232Z,39.23
2018-02-18T00:49:23.796Z,34.50
2018-02-18T00:51:51.417Z,35.13
2018-02-18T00:54:19.143Z,37.73
2018-02-18T00:56:46.708Z,34.80
2018-02-18T00:59:14.309Z,37.50
2018-02-18T01:01:42.067Z,36.73
2018-02-18T01:04:09.613Z,35.70
2018-02-18T01:06:37.158Z,34.00
2018-02-18T01:09:04.956Z,31.47
2018-02-18T01:11:32.525Z,32.73
2018-02-18T01:14:00.083Z,34.80
2018-02-18T01:16:27.685Z,35.00
2018-02-18T01:18:55.242Z,32.80
2018-02-18T01:21:22.792Z,31.13
2018-02-18T01:23:50.544Z,33.67
2018-02-18T01:26:18.096Z,33.93
2018-02-18T01:28:45.647Z,35.77
2018-02-18T01:31:13.248Z,33.53
2018-02-18T01:33:40.798Z,34.17
2018-02-18T01:36:08.355Z,33.87
2018-02-18T01:38:35.949Z,33.03
2018-02-18T01:41:03.506Z,32.93
2018-02-18T01:43:31.067Z,30.10
2018-02-18T01:45:58.816Z,30.87
2018-02-18T01:48:26.375Z,30.87
2018-02-18T01:50:53.926Z,30.30
2018-02-18T01:53:21.529Z,30.33
2018-02-18T01:55:49.077Z,31.17
2018-02-18T01:58:16.677Z,29.80
2018-02-18T02:00:44.300Z,31.87
2018-02-18T02:03:11.847Z,28.93
2018-02-18T02:05:39.389Z,28.17
2018-02-18T02:08:07.084Z,29.50
2018-02-18T02:10:34.633Z,29.17
2018-02-18T02:13:02.200Z,29.50
2018-02-18T02:15:29.782Z,29.03
2018-02-18T02:17:57.330Z,29.17
2018-02-18T02:20:24.933Z,28.60
2018-02-18T02:22:52.622Z,27.40
2018-02-18T02:25:20.165Z,28.77
2018-02-18T02:27:47.710Z,27.83
2018-02-18T02:30:15.454Z,28.37
2018-02-18T02:32:42.999Z,28.80
2018-02-18T02:35:10.562Z,29.37
2018-02-18T02:37:38.178Z,28.20
2018-02-18T02:40:05.736Z,29.73
2018-02-18T02:42:33.286Z,30.70
2018-02-18T02:45:01.021Z,34.43
2018-02-18T02:47:28.578Z,33.83
2018-02-18T02:49:56.125Z,30.50
2018-02-18T02:52:23.760Z,30.90
2018-02-18T02:54:51.311Z,29.40
2018-02-18T02:57:18.861Z,29.17
2018-02-18T02:59:46.446Z,30.07
2018-02-18T03:02:13.998Z,28.20
2018-02-18T03:04:41.564Z,28.23
2018-02-18T03:07:09.150Z,28.13
2018-02-18T03:09:36.695Z,27.37
2018-02-18T03:12:04.264Z,29.90
2018-02-18T03:14:31.859Z,31.33
2018-02-18T03:16:59.440Z,30.20
2018-02-18T03:19:26.990Z,30.73
2018-02-18T03:21:54.599Z,30.53
2018-02-18T03:24:22.152Z,33.50
2018-02-18T03:26:49.751Z,34.30
2018-02-18T03:29:17.353Z,34.60
2018-02-18T03:31:44.905Z,36.00
2018-02-18T03:34:12.459Z,39.07
2018-02-18T03:36:40.327Z,40.37
2018-02-18T03:39:07.898Z,37.00
2018-02-18T03:41:35.444Z,34.67
2018-02-18T03:44:03.047Z,35.97
2018-02-18T03:46:30.595Z,36.27
2018-02-18T03:48:58.151Z,37.50
2018-02-18T03:51:25.843Z,40.87
2018-02-18T03:53:53.405Z,41.10
2018-02-18T03:56:20.967Z,40.43
2018-02-18T03:58:48.567Z,32.53
2018-02-18T04:01:16.128Z,26.30
2018-02-18T04:03:43.682Z,26.17
2018-02-18T04:06:11.411Z,25.93
2018-02-18T04:08:38.987Z,26.30
2018-02-18T04:11:06.545Z,29.97
2018-02-18T04:13:34.143Z,30.73
2018-02-18T04:16:01.704Z,28.03
2018-02-18T04:18:29.254Z,30.70
2018-02-18T04:20:56.825Z,28.80
2018-02-18T04:23:24.406Z,28.03
2018-02-18T04:25:51.964Z,26.17
2018-02-18T04:28:19.707Z,25.33
2018-02-18T04:30:47.267Z,25.47
2018-02-18T04:33:14.824Z,26.90
2018-02-18T04:35:42.407Z,32.53
2018-02-18T04:38:09.957Z,36.13
2018-02-18T04:40:37.514Z,28.90
2018-02-18T04:43:05.350Z,26.13
2018-02-18T04:45:32.934Z,25.60
2018-02-18T04:48:00.481Z,24.73
2018-02-18T04:50:28.220Z,25.27
2018-02-18T04:52:55.779Z,25.40
2018-02-18T04:55:23.350Z,25.10
2018-02-18T04:57:51.104Z,25.47
2018-02-18T05:00:18.668Z,24.03
2018-02-18T05:02:46.231Z,24.77
2018-02-18T05:05:14.006Z,26.53
2018-02-18T05:07:41.541Z,26.90
2018-02-18T05:10:09.101Z,27.17
2018-02-18T05:12:36.849Z,32.10
2018-02-18T05:15:04.426Z,31.70
2018-02-18T05:17:32.006Z,28.07
2018-02-18T05:19:59.609Z,27.77
2018-02-18T05:22:27.181Z,29.50
2018-02-18T05:24:54.738Z,29.97
2018-02-18T05:27:22.426Z,30.80
2018-02-18T05:29:49.986Z,29.60
2018-02-18T05:32:17.558Z,31.70
2018-02-18T05:34:45.151Z,32.53
2018-02-18T05:37:12.695Z,30.80
2018-02-18T05:39:40.257Z,38.10
2018-02-18T05:42:07.827Z,32.53
2018-02-18T05:44:36.265Z,32.47
2018-02-18T05:47:03.818Z,32.70
2018-02-18T05:49:31.526Z,32.40
2018-02-18T05:51:59.079Z,29.97
2018-02-18T05:54:26.791Z,30.23
2018-02-18T05:56:54.517Z,33.10
2018-02-18T05:59:22.081Z,35.27
2018-02-18T06:01:49.667Z,32.33
2018-02-18T06:04:17.237Z,34.07
2018-02-18T06:06:44.787Z,34.10
2018-02-18T06:09:12.349Z,36.90
2018-02-18T06:11:39.946Z,34.43
2018-02-18T06:14:07.506Z,34.53
2018-02-18T06:16:35.083Z,34.20
2018-02-18T06:19:02.662Z,33.20
2018-02-18T06:21:30.218Z,34.43
2018-02-18T06:23:57.781Z,31.30
2018-02-18T06:26:25.358Z,33.73
2018-02-18T06:28:52.900Z,34.43
2018-02-18T06:31:20.446Z,33.03
2018-02-18T06:33:48.144Z,35.07
2018-02-18T06:36:15.700Z,37.30
2018-02-18T06:38:43.264Z,33.63
2018-02-18T06:41:10.947Z,36.43
2018-02-18T06:43:38.510Z,35.83
2018-02-18T06:46:06.061Z,36.83
2018-02-18T06:48:33.680Z,36.83
2018-02-18T06:51:01.275Z,35.70
2018-02-18T06:53:28.827Z,35.37
2018-02-18T06:55:56.435Z,34.10
2018-02-18T06:58:23.994Z,32.83
2018-02-18T07:00:51.548Z,35.47
2018-02-18T07:03:19.292Z,35.40
2018-02-18T07:05:46.859Z,39.93
2018-02-18T07:08:14.436Z,44.17
2018-02-18T07:10:42.022Z,44.87
2018-02-18T07:13:09.584Z,46.67
2018-02-18T07:15:37.129Z,45.83
2018-02-18T07:18:04.734Z,47.03
2018-02-18T07:20:32.296Z,53.30
2018-02-18T07:22:59.848Z,47.73
2018-02-18T07:25:27.578Z,44.93
2018-02-18T07:27:55.160Z,50.10
2018-02-18T07:30:22.722Z,45.33
2018-02-18T07:32:50.430Z,47.40
2018-02-18T07:35:17.992Z,45.63
2018-02-18T07:37:45.550Z,46.43
2018-02-18T07:40:13.281Z,46.90
2018-02-18T07:42:40.851Z,45.53
2018-02-18T07:45:08.407Z,47.30
2018-02-18T07:47:36.146Z,54.67
2018-02-18T07:50:03.721Z,51.80
2018-02-18T07:52:31.270Z,50.40
2018-02-18T07:54:58.861Z,52.87
2018-02-18T07:57:26.431Z,53.13
2018-02-18T07:59:53.997Z,51.67
2018-02-18T08:02:21.591Z,50.37
2018-02-18T08:04:49.153Z,50.53
2018-02-18T08:07:16.726Z,54.30
2018-02-18T08:09:44.603Z,50.60
2018-02-18T08:12:12.163Z,48.87
2018-02-18T08:14:39.717Z,51.33
2018-02-18T08:17:07.326Z,50.80
2018-02-18T08:19:34.869Z,45.37
2018-02-18T08:22:02.418Z,53.30
2018-02-18T08:24:30.228Z,46.47
2018-02-18T08:26:57.780Z,47.40
2018-02-18T08:29:25.333Z,48.10
2018-02-18T08:31:53.227Z,64.57
2018-02-18T08:34:20.807Z,63.23
2018-02-18T08:36:48.375Z,51.67
2018-02-18T08:39:15.961Z,51.87
2018-02-18T08:41:43.520Z,53.87
2018-02-18T08:44:11.082Z,49.60
2018-02-18T08:46:38.676Z,49.50
2018-02-18T08:49:06.240Z,53.97
2018-02-18T08:51:33.807Z,48.53
2018-02-18T08:54:01.549Z,46.90
2018-02-18T08:56:29.108Z,49.10
2018-02-18T08:58:56.704Z,45.33
2018-02-18T09:01:24.284Z,46.67
2018-02-18T09:03:51.840Z,45.93
2018-02-18T09:06:19.404Z,46.60
2018-02-18T09:08:47.288Z,45.97
2018-02-18T09:11:14.855Z,48.73
2018-02-18T09:13:42.418Z,44.57
2018-02-18T09:16:10.320Z,46.17
2018-02-18T09:27:55.462Z,41.40
2018-02-18T09:30:23.028Z,40.33
2018-02-18T09:32:50.598Z,41.33
2018-02-18T09:35:18.498Z,49.93
2018-02-18T09:37:46.047Z,45.13
2018-02-18T09:40:13.604Z,42.90
2018-02-18T09:42:41.292Z,40.80
2018-02-18T09:45:08.854Z,42.63
2018-02-18T09:47:36.394Z,40.40
2018-02-18T09:50:04.135Z,40.50
2018-02-18T09:52:31.679Z,43.47
2018-02-18T09:54:59.226Z,45.63
2018-02-18T09:57:26.968Z,44.67
2018-02-18T09:59:54.529Z,45.20
2018-02-18T10:02:22.076Z,47.63
2018-02-18T10:04:49.815Z,44.07
2018-02-18T10:07:17.363Z,45.33
2018-02-18T10:09:44.910Z,46.27
2018-02-18T10:12:12.505Z,42.97
2018-02-18T10:14:40.065Z,42.47
2018-02-18T10:17:07.614Z,43.43
2018-02-18T10:19:35.301Z,43.67
2018-02-18T10:22:02.853Z,46.67
2018-02-18T10:24:30.406Z,45.20
2018-02-18T10:26:58.143Z,43.87
2018-02-18T10:29:25.704Z,42.57
2018-02-18T10:31:53.288Z,43.40
2018-02-18T10:34:20.860Z,44.57
2018-02-18T10:36:48.416Z,41.43
2018-02-18T10:39:15.988Z,39.77
2018-02-18T10:41:43.584Z,39.70
2018-02-18T10:44:11.126Z,37.30
2018-02-18T10:46:38.705Z,38.17
2018-02-18T10:49:06.284Z,38.07
2018-02-18T10:51:33.834Z,37.87
2018-02-18T10:54:01.402Z,38.77
2018-02-18T10:56:28.998Z,34.90
2018-02-18T10:58:56.562Z,36.40
2018-02-18T11:01:24.122Z,35.20
2018-02-18T11:03:51.854Z,35.57
2018-02-18T11:06:19.408Z,35.93
2018-02-18T11:08:46.949Z,36.37
2018-02-18T11:11:15.486Z,35.10
2018-02-18T11:13:43.031Z,39.20
2018-02-18T11:16:10.725Z,38.17
2018-02-18T11:18:38.281Z,35.77
2018-02-18T11:21:05.834Z,37.10
2018-02-18T11:23:33.684Z,39.47
2018-02-18T11:26:01.251Z,38.67
2018-02-18T11:28:28.808Z,36.47
2018-02-18T11:30:56.399Z,38.03
2018-02-18T11:33:23.948Z,35.13
2018-02-18T11:35:51.503Z,35.93
2018-02-18T11:38:19.152Z,36.63
2018-02-18T11:40:46.715Z,35.90
2018-02-18T11:43:14.296Z,36.43
2018-02-18T11:45:41.995Z,35.20
2018-02-18T11:48:09.556Z,34.80
2018-02-18T11:50:37.110Z,34.83
2018-02-18T11:53:04.733Z,34.93
2018-02-18T11:55:32.296Z,40.30
2018-02-18T11:57:59.874Z,40.53
2018-02-18T12:00:27.591Z,42.70
2018-02-18T12:02:55.159Z,36.50
2018-02-18T12:05:22.710Z,41.03
2018-02-18T12:07:50.412Z,38.73
2018-02-18T12:10:17.962Z,33.47
2018-02-18T12:12:45.524Z,34.20
2018-02-18T12:15:13.403Z,33.77
2018-02-18T12:17:40.957Z,36.80
2018-02-18T12:20:08.513Z,35.43
2018-02-18T12:22:36.332Z,34.33
2018-02-18T12:25:03.884Z,31.90
2018-02-18T12:27:31.452Z,33.47
2018-02-18T12:29:59.342Z,33.97
2018-02-18T12:32:26.916Z,32.20
2018-02-18T12:34:54.462Z,33.37
2018-02-18T12:37:22.049Z,34.10
2018-02-18T12:39:49.608Z,33.20
2018-02-18T12:42:17.182Z,34.40
2018-02-18T12:44:44.792Z,32.37
2018-02-18T12:47:12.359Z,32.90
2018-02-18T12:49:39.911Z,32.40
2018-02-18T12:52:07.519Z,30.40
2018-02-18T12:54:35.070Z,30.17
2018-02-18T12:57:02.631Z,29.93
2018-02-18T12:59:30.214Z,29.53
2018-02-18T13:01:57.782Z,30.53
2018-02-18T13:04:25.337Z,33.07
2018-02-18T13:06:53.037Z,30.60
2018-02-18T13:09:20.591Z,29.43
2018-02-18T13:11:48.144Z,29.30
2018-02-18T13:14:16.012Z,27.83
2018-02-18T13:16:43.564Z,28.97
2018-02-18T13:19:11.114Z,28.63
2018-02-18T13:21:38.716Z,30.47
2018-02-18T13:24:06.265Z,27.23
2018-02-18T13:26:33.807Z,27.87
2018-02-18T13:29:01.407Z,27.20
2018-02-18T13:31:28.959Z,29.47
2018-02-18T13:33:56.498Z,28.87
2018-02-18T13:36:24.080Z,29.20
2018-02-18T13:38:51.634Z,46.87
2018-02-18T13:41:19.192Z,27.63
2018-02-18T13:43:46.924Z,29.10
2018-02-18T13:46:14.500Z,29.40
2018-02-18T13:48:42.063Z,30.07
2018-02-18T13:51:09.807Z,38.23
2018-02-18T13:53:37.370Z,28.60
2018-02-18T13:56:04.932Z,30.73
2018-02-18T13:58:32.519Z,30.23
2018-02-18T14:01:00.078Z,28.77
2018-02-18T14:03:27.630Z,28.57
2018-02-18T14:05:55.718Z,28.13
2018-02-18T14:08:23.263Z,28.40
2018-02-18T14:10:50.818Z,29.03
2018-02-18T14:13:18.614Z,30.17
2018-02-18T14:15:46.170Z,29.20
2018-02-18T14:18:13.716Z,29.73
2018-02-18T14:20:41.586Z,35.23
2018-02-18T14:23:09.157Z,31.23
2018-02-18T14:25:36.726Z,34.83
2018-02-18T14:28:04.593Z,36.37
2018-02-18T14:30:32.154Z,36.37
2018-02-18T14:32:59.692Z,35.20
2018-02-18T14:35:27.292Z,33.97
2018-02-18T14:37:54.846Z,37.23
2018-02-18T14:40:22.399Z,36.57
2018-02-18T14:43:01.724Z,38.60
2018-02-18T14:45:41.031Z,36.33
2018-02-18T14:51:35.767Z,37.33
2018-02-18T14:54:15.098Z,41.10
2018-02-18T15:00:00.247Z,39.30
2018-02-18T15:02:27.835Z,41.47
2018-02-18T15:04:55.395Z,45.17
2018-02-18T15:07:23.103Z,42.23
2018-02-18T15:09:50.660Z,44.37
2018-02-18T15:12:18.219Z,42.30
2018-02-18T15:14:45.821Z,37.43
2018-02-18T15:17:13.383Z,40.53
2018-02-18T15:19:40.966Z,42.87
2018-02-18T15:22:08.708Z,42.07
2018-02-18T15:24:36.264Z,53.60
2018-02-18T15:27:03.832Z,66.97
2018-02-18T15:29:31.449Z,58.03
2018-02-18T15:31:59.039Z,44.00
2018-02-18T15:34:26.637Z,42.57
2018-02-18T15:36:54.423Z,41.13
2018-02-18T15:39:22.007Z,45.77
2018-02-18T15:41:49.628Z,47.43
2018-02-18T15:44:17.246Z,39.83
2018-02-18T15:46:44.811Z,41.43
2018-02-18T15:49:12.376Z,42.87
2018-02-18T15:51:40.143Z,46.47
2018-02-18T15:54:07.724Z,44.20
2018-02-18T15:56:35.301Z,40.73
2018-02-18T15:59:03.208Z,41.77
2018-02-18T16:01:30.794Z,46.57
2018-02-18T16:03:58.386Z,48.13
2018-02-18T16:06:25.992Z,46.57
2018-02-18T16:08:53.584Z,45.97
2018-02-18T16:11:21.202Z,44.87
2018-02-18T16:13:49.274Z,41.83
2018-02-18T16:16:16.996Z,40.83
2018-02-18T16:18:44.648Z,35.40
2018-02-18T16:21:12.535Z,26.83
2018-02-18T16:23:40.345Z,24.73
2018-02-18T16:26:08.143Z,26.90
2018-02-18T16:28:35.985Z,25.37
2018-02-18T16:31:04.049Z,30.77
2018-02-18T16:33:32.447Z,29.97
2018-02-18T16:36:00.945Z,31.13
2018-02-18T16:38:28.691Z,26.80
2018-02-18T16:40:56.692Z,25.73
2018-02-18T16:43:25.206Z,26.40
2018-02-18T16:45:53.201Z,25.93
2018-02-18T16:48:21.028Z,27.30
2018-02-18T16:50:48.735Z,27.37
2018-02-18T16:53:16.586Z,25.30
2018-02-18T16:55:44.808Z,24.77
2018-02-18T16:58:13.264Z,39.33
2018-02-18T17:00:41.446Z,48.83
2018-02-18T17:03:09.123Z,37.07
2018-02-18T17:05:36.852Z,41.53
2018-02-18T17:08:04.751Z,35.57
2018-02-18T17:10:32.482Z,32.60
2018-02-18T17:13:00.174Z,31.30
2018-02-18T17:15:27.802Z,28.80
2018-02-18T17:17:55.857Z,28.17
2018-02-18T17:20:24.201Z,32.80
2018-02-18T17:22:51.839Z,34.13
2018-02-18T17:25:19.581Z,34.30
2018-02-18T17:27:47.363Z,39.17
2018-02-18T17:30:15.050Z,40.23
2018-02-18T17:32:42.786Z,46.57
2018-02-18T17:35:10.379Z,36.37
2018-02-18T17:37:37.964Z,33.73
2018-02-18T17:40:05.730Z,36.63
2018-02-18T17:42:33.357Z,37.50
2018-02-18T17:45:01.018Z,53.93
2018-02-18T17:47:28.955Z,53.10
2018-02-18T17:49:56.576Z,48.77
2018-02-18T17:52:24.144Z,50.67
2018-02-18T17:54:52.078Z,47.17
2018-02-18T17:57:19.651Z,43.87
2018-02-18T17:59:47.236Z,40.90
2018-02-18T18:02:14.965Z,40.10
2018-02-18T18:04:42.528Z,43.27
2018-02-18T18:07:10.119Z,49.03
2018-02-18T18:09:37.705Z,43.00
2018-02-18T18:12:05.258Z,48.67
2018-02-18T18:14:32.835Z,46.13
2018-02-18T18:17:00.613Z,53.33
2018-02-18T18:19:28.179Z,54.23
2018-02-18T18:21:55.754Z,47.10
2018-02-18T18:24:23.481Z,50.00
2018-02-18T18:26:51.057Z,56.60
2018-02-18T18:29:18.669Z,46.20
2018-02-18T18:31:46.274Z,42.03
2018-02-18T18:34:13.881Z,40.77
2018-02-18T18:36:41.456Z,62.33
2018-02-18T18:39:09.044Z,39.30
2018-02-18T18:41:36.593Z,39.73
2018-02-18T18:44:04.154Z,39.47
2018-02-18T18:46:32.082Z,38.67
2018-02-18T18:48:59.642Z,39.77
2018-02-18T18:51:27.203Z,41.50
2018-02-18T18:53:55.164Z,44.17
2018-02-18T18:56:22.730Z,53.90
2018-02-18T18:58:50.323Z,81.67
2018-02-18T19:01:17.928Z,54.53
2018-02-18T19:03:45.510Z,59.57
2018-02-18T19:06:13.086Z,78.60
2018-02-18T19:08:40.847Z,75.97
2018-02-18T19:11:08.408Z,55.50
2018-02-18T19:13:35.974Z,51.10
2018-02-18T19:16:03.605Z,44.37
2018-02-18T19:18:31.158Z,44.03
2018-02-18T19:20:58.721Z,44.50
2018-02-18T19:23:26.516Z,42.03
2018-02-18T19:25:54.064Z,40.27
2018-02-18T19:28:21.664Z,43.27
2018-02-18T19:30:49.365Z,44.23
2018-02-18T19:33:16.935Z,45.20
2018-02-18T19:35:44.538Z,45.13
2018-02-18T19:38:12.423Z,45.13
2018-02-18T19:40:40.003Z,51.17
2018-02-18T19:43:07.692Z,50.20
2018-02-18T19:45:35.369Z,52.53
2018-02-18T19:48:03.006Z,53.50
2018-02-18T19:50:30.697Z,53.47
2018-02-18T19:52:58.318Z,55.00
2018-02-18T19:55:25.914Z,51.53
2018-02-18T19:57:53.491Z,52.30
2018-02-18T20:00:21.083Z,51.40
2018-02-18T20:02:48.644Z,50.30
2018-02-18T20:05:16.227Z,46.60
2018-02-18T20:07:44.046Z,51.87
2018-02-18T20:10:11.602Z,63.70
2018-02-18T20:12:39.156Z,61.83
2018-02-18T20:15:06.755Z,98.83
2018-02-18T20:17:34.327Z,185.77
2018-02-18T20:20:01.907Z,138.90
2018-02-18T20:22:29.667Z,55.17
2018-02-18T20:24:57.237Z,51.87
2018-02-18T20:27:24.856Z,62.43
2018-02-18T20:29:52.600Z,71.80
2018-02-18T20:32:20.177Z,95.70
2018-02-18T20:34:47.729Z,96.10
2018-02-18T20:37:15.329Z,63.93
2018-02-18T20:39:43.027Z,54.10
2018-02-18T20:42:10.590Z,42.23
2018-02-18T20:44:38.524Z,38.43
2018-02-18T20:47:06.133Z,37.30
2018-02-18T20:49:33.692Z,39.27
2018-02-18T20:52:01.450Z,33.93
2018-02-18T20:54:29.024Z,42.70
2018-02-18T20:56:56.646Z,37.43
2018-02-18T20:59:24.259Z,37.27
2018-02-18T21:01:51.860Z,34.93
2018-02-18T21:04:19.431Z,36.53
2018-02-18T21:06:47.213Z,39.30
2018-02-18T21:09:14.774Z,38.53
2018-02-18T21:11:42.339Z,41.43
2018-02-18T21:14:10.137Z,57.27
2018-02-18T21:16:37.700Z,56.83
2018-02-18T21:19:05.274Z,51.47
2018-02-18T21:21:32.887Z,51.73
2018-02-18T21:24:00.447Z,47.10
2018-02-18T21:26:27.999Z,43.40
2018-02-18T21:28:55.739Z,33.20
2018-02-18T21:31:23.303Z,31.23
2018-02-18T21:33:50.892Z,33.60
2018-02-18T21:36:18.799Z,34.27
2018-02-18T21:38:46.358Z,31.83
2018-02-18T21:41:13.915Z,26.17
2018-02-18T21:43:41.644Z,26.80
2018-02-18T21:46:09.207Z,24.33
2018-02-18T21:48:36.760Z,25.90
2018-02-18T21:51:04.368Z,26.70
2018-02-18T21:53:31.921Z,24.43
2018-02-18T21:55:59.568Z,25.67
2018-02-18T21:58:27.325Z,27.70
2018-02-18T22:00:54.891Z,30.23
2018-02-18T22:03:22.451Z,27.30
2018-02-18T22:05:50.071Z,24.57
2018-02-18T22:08:17.637Z,25.10
2018-02-18T22:10:45.188Z,30.40
2018-02-18T22:13:12.760Z,26.47
2018-02-18T22:15:40.318Z,26.90
2018-02-18T22:18:07.930Z,24.60
2018-02-18T22:20:35.490Z,21.97
2018-02-18T22:23:03.047Z,22.27
2018-02-18T22:25:30.639Z,22.70
2018-02-18T22:27:58.191Z,22.73
2018-02-18T22:30:25.749Z,21.20
2018-02-18T22:32:53.631Z,20.43
2018-02-18T22:35:21.195Z,20.77
2018-02-18T22:37:48.742Z,20.50
2018-02-18T22:40:16.351Z,20.37
2018-02-18T22:42:43.914Z,20.60
2018-02-18T22:45:11.478Z,20.50
2018-02-18T22:47:39.234Z,20.13
2018-02-18T22:50:06.802Z,19.40
2018-02-18T22:52:34.361Z,18.03
2018-02-18T22:55:02.057Z,17.63
2018-02-18T22:57:29.611Z,17.77
2018-02-18T22:59:57.171Z,19.10
2018-02-18T23:02:24.867Z,18.77
2018-02-18T23:08:00.725Z,18.13
2018-02-18T23:10:28.334Z,18.83
2018-02-18T23:12:55.867Z,18.17
2018-02-18T23:15:23.454Z,17.13
2018-02-18T23:17:50.997Z,17.27
2018-02-18T23:20:18.567Z,16.23
2018-02-18T23:22:46.149Z,16.07
2018-02-18T23:25:13.728Z,17.17
2018-02-18T23:27:41.390Z,16.47
2018-02-18T23:30:09.123Z,17.23
2018-02-18T23:32:36.665Z,16.70
2018-02-18T23:35:04.225Z,16.83
2018-02-18T23:37:31.820Z,17.87
2018-02-18T23:39:59.363Z,16.07
2018-02-18T23:42:26.929Z,16.83
2018-02-18T23:44:54.606Z,16.53
2018-02-18T23:47:22.163Z,16.90
2018-02-18T23:49:49.745Z,18.13
2018-02-18T23:52:17.643Z,17.33
2018-02-18T23:54:45.197Z,16.40
2018-02-18T23:57:12.742Z,15.00
2018-02-18T23:59:40.422Z,13.67
